sensor_id;sensor_type;location;lat;lon;timestamp;P1;durP1;ratioP1;P2;durP2;ratioP2
72413;SDS011;60995;52.154;4.498;2023-06-22T00:00:55;41.78;;;25.85;;
72413;SDS011;60995;52.154;4.498;2023-06-22T00:03:12;45.17;;;28.40;;
72413;SDS011;60995;52.154;4.498;2023-06-22T00:05:28;42.70;;;25.90;;
72413;SDS011;60995;52.154;4.498;2023-06-22T00:07:44;43.65;;;24.83;;
72413;SDS011;60995;52.154;4.498;2023-06-22T00:10:00;42.83;;;27.13;;
72413;SDS011;60995;52.154;4.498;2023-06-22T00:12:17;50.33;;;29.48;;
72413;SDS011;60995;52.154;4.498;2023-06-22T00:14:33;47.65;;;28.00;;
72413;SDS011;60995;52.154;4.498;2023-06-22T00:16:49;42.47;;;27.73;;
72413;SDS011;60995;52.154;4.498;2023-06-22T00:19:11;50.42;;;29.70;;
72413;SDS011;60995;52.154;4.498;2023-06-22T00:21:27;45.72;;;29.05;;
72413;SDS011;60995;52.154;4.498;2023-06-22T00:23:43;52.00;;;29.85;;
72413;SDS011;60995;52.154;4.498;2023-06-22T00:26:00;48.28;;;29.20;;
72413;SDS011;60995;52.154;4.498;2023-06-22T00:28:16;51.53;;;31.05;;
72413;SDS011;60995;52.154;4.498;2023-06-22T00:30:32;50.65;;;29.92;;
72413;SDS011;60995;52.154;4.498;2023-06-22T00:32:49;53.05;;;30.85;;
72413;SDS011;60995;52.154;4.498;2023-06-22T00:35:06;52.85;;;29.90;;
72413;SDS011;60995;52.154;4.498;2023-06-22T00:37:23;56.15;;;31.90;;
72413;SDS011;60995;52.154;4.498;2023-06-22T00:39:42;58.35;;;33.08;;
72413;SDS011;60995;52.154;4.498;2023-06-22T00:41:59;58.50;;;32.72;;
72413;SDS011;60995;52.154;4.498;2023-06-22T00:44:15;57.10;;;33.70;;
72413;SDS011;60995;52.154;4.498;2023-06-22T00:46:31;58.28;;;32.97;;
72413;SDS011;60995;52.154;4.498;2023-06-22T00:48:48;50.42;;;31.45;;
72413;SDS011;60995;52.154;4.498;2023-06-22T00:51:07;54.35;;;32.90;;
72413;SDS011;60995;52.154;4.498;2023-06-22T00:53:23;57.05;;;32.17;;
72413;SDS011;60995;52.154;4.498;2023-06-22T00:55:43;56.15;;;33.38;;
72413;SDS011;60995;52.154;4.498;2023-06-22T00:58:07;54.50;;;32.40;;
72413;SDS011;60995;52.154;4.498;2023-06-22T01:00:26;52.88;;;32.10;;
72413;SDS011;60995;52.154;4.498;2023-06-22T01:02:42;52.92;;;30.42;;
72413;SDS011;60995;52.154;4.498;2023-06-22T01:05:01;55.75;;;32.58;;
72413;SDS011;60995;52.154;4.498;2023-06-22T01:07:39;56.63;;;31.63;;
72413;SDS011;60995;52.154;4.498;2023-06-22T01:10:07;52.17;;;31.67;;
72413;SDS011;60995;52.154;4.498;2023-06-22T01:12:34;50.47;;;29.30;;
72413;SDS011;60995;52.154;4.498;2023-06-22T01:15:16;48.08;;;29.92;;
72413;SDS011;60995;52.154;4.498;2023-06-22T01:17:41;54.30;;;30.88;;
72413;SDS011;60995;52.154;4.498;2023-06-22T01:20:00;51.40;;;31.38;;
72413;SDS011;60995;52.154;4.498;2023-06-22T01:22:23;54.40;;;31.20;;
72413;SDS011;60995;52.154;4.498;2023-06-22T01:29:57;54.80;;;33.47;;
72413;SDS011;60995;52.154;4.498;2023-06-22T01:32:16;57.33;;;34.28;;
72413;SDS011;60995;52.154;4.498;2023-06-22T01:34:34;60.58;;;35.03;;
72413;SDS011;60995;52.154;4.498;2023-06-22T01:36:55;58.33;;;34.63;;
72413;SDS011;60995;52.154;4.498;2023-06-22T01:39:14;57.55;;;34.63;;
72413;SDS011;60995;52.154;4.498;2023-06-22T01:41:34;62.92;;;34.97;;
72413;SDS011;60995;52.154;4.498;2023-06-22T01:43:54;60.85;;;36.10;;
72413;SDS011;60995;52.154;4.498;2023-06-22T01:46:11;58.00;;;36.92;;
72413;SDS011;60995;52.154;4.498;2023-06-22T01:48:29;59.55;;;36.50;;
72413;SDS011;60995;52.154;4.498;2023-06-22T01:50:47;60.03;;;36.40;;
72413;SDS011;60995;52.154;4.498;2023-06-22T01:53:04;61.28;;;35.30;;
72413;SDS011;60995;52.154;4.498;2023-06-22T01:55:22;64.35;;;37.53;;
72413;SDS011;60995;52.154;4.498;2023-06-22T01:57:39;70.50;;;40.58;;
72413;SDS011;60995;52.154;4.498;2023-06-22T02:02:31;71.90;;;39.90;;
72413;SDS011;60995;52.154;4.498;2023-06-22T02:05:02;66.97;;;37.92;;
72413;SDS011;60995;52.154;4.498;2023-06-22T02:07:23;74.72;;;42.25;;
72413;SDS011;60995;52.154;4.498;2023-06-22T02:09:43;74.20;;;42.38;;
72413;SDS011;60995;52.154;4.498;2023-06-22T02:12:02;75.13;;;42.38;;
72413;SDS011;60995;52.154;4.498;2023-06-22T02:14:23;75.18;;;42.67;;
72413;SDS011;60995;52.154;4.498;2023-06-22T02:16:40;75.88;;;41.67;;
72413;SDS011;60995;52.154;4.498;2023-06-22T02:18:58;77.40;;;43.50;;
72413;SDS011;60995;52.154;4.498;2023-06-22T02:21:21;74.68;;;42.75;;
72413;SDS011;60995;52.154;4.498;2023-06-22T02:23:39;79.47;;;45.30;;
72413;SDS011;60995;52.154;4.498;2023-06-22T02:25:55;78.72;;;43.95;;
72413;SDS011;60995;52.154;4.498;2023-06-22T02:28:11;79.15;;;44.35;;
72413;SDS011;60995;52.154;4.498;2023-06-22T02:30:27;86.50;;;46.05;;
72413;SDS011;60995;52.154;4.498;2023-06-22T02:32:44;75.20;;;43.83;;
72413;SDS011;60995;52.154;4.498;2023-06-22T02:35:00;82.60;;;47.03;;
72413;SDS011;60995;52.154;4.498;2023-06-22T02:37:20;83.05;;;47.35;;
72413;SDS011;60995;52.154;4.498;2023-06-22T02:39:36;84.82;;;45.95;;
72413;SDS011;60995;52.154;4.498;2023-06-22T02:41:53;82.55;;;44.00;;
72413;SDS011;60995;52.154;4.498;2023-06-22T02:44:10;88.55;;;46.30;;
72413;SDS011;60995;52.154;4.498;2023-06-22T02:46:26;82.22;;;45.47;;
72413;SDS011;60995;52.154;4.498;2023-06-22T02:48:43;81.50;;;45.72;;
72413;SDS011;60995;52.154;4.498;2023-06-22T02:50:59;84.18;;;46.53;;
72413;SDS011;60995;52.154;4.498;2023-06-22T02:53:15;85.22;;;47.17;;
72413;SDS011;60995;52.154;4.498;2023-06-22T02:55:31;86.97;;;45.47;;
72413;SDS011;60995;52.154;4.498;2023-06-22T02:57:48;86.05;;;44.53;;
72413;SDS011;60995;52.154;4.498;2023-06-22T03:00:08;89.32;;;46.13;;
72413;SDS011;60995;52.154;4.498;2023-06-22T03:02:33;88.53;;;47.95;;
72413;SDS011;60995;52.154;4.498;2023-06-22T03:04:49;85.28;;;44.83;;
72413;SDS011;60995;52.154;4.498;2023-06-22T03:07:06;81.45;;;44.13;;
72413;SDS011;60995;52.154;4.498;2023-06-22T03:09:22;88.78;;;45.65;;
72413;SDS011;60995;52.154;4.498;2023-06-22T03:11:38;83.07;;;45.03;;
72413;SDS011;60995;52.154;4.498;2023-06-22T03:13:54;83.45;;;44.17;;
72413;SDS011;60995;52.154;4.498;2023-06-22T03:16:11;82.18;;;44.45;;
72413;SDS011;60995;52.154;4.498;2023-06-22T03:18:27;82.63;;;43.70;;
72413;SDS011;60995;52.154;4.498;2023-06-22T03:20:43;81.38;;;45.35;;
72413;SDS011;60995;52.154;4.498;2023-06-22T03:22:59;83.35;;;44.28;;
72413;SDS011;60995;52.154;4.498;2023-06-22T03:25:16;82.75;;;43.75;;
72413;SDS011;60995;52.154;4.498;2023-06-22T03:27:32;82.47;;;44.90;;
72413;SDS011;60995;52.154;4.498;2023-06-22T03:29:48;82.50;;;45.45;;
72413;SDS011;60995;52.154;4.498;2023-06-22T03:32:05;78.60;;;43.80;;
72413;SDS011;60995;52.154;4.498;2023-06-22T03:34:22;80.47;;;44.10;;
72413;SDS011;60995;52.154;4.498;2023-06-22T03:36:38;87.97;;;44.00;;
72413;SDS011;60995;52.154;4.498;2023-06-22T03:38:55;81.82;;;46.33;;
72413;SDS011;60995;52.154;4.498;2023-06-22T03:41:11;81.43;;;43.88;;
72413;SDS011;60995;52.154;4.498;2023-06-22T03:43:28;85.80;;;47.00;;
72413;SDS011;60995;52.154;4.498;2023-06-22T03:45:44;80.55;;;44.63;;
72413;SDS011;60995;52.154;4.498;2023-06-22T03:48:03;78.78;;;44.88;;
72413;SDS011;60995;52.154;4.498;2023-06-22T03:50:19;83.18;;;45.15;;
72413;SDS011;60995;52.154;4.498;2023-06-22T03:52:36;80.13;;;44.03;;
72413;SDS011;60995;52.154;4.498;2023-06-22T03:54:52;77.55;;;43.38;;
72413;SDS011;60995;52.154;4.498;2023-06-22T03:57:08;73.07;;;43.80;;
72413;SDS011;60995;52.154;4.498;2023-06-22T03:59:25;74.88;;;43.25;;
72413;SDS011;60995;52.154;4.498;2023-06-22T04:01:41;84.38;;;46.50;;
72413;SDS011;60995;52.154;4.498;2023-06-22T04:03:57;83.95;;;46.13;;
72413;SDS011;60995;52.154;4.498;2023-06-22T04:06:13;77.70;;;44.67;;
72413;SDS011;60995;52.154;4.498;2023-06-22T04:08:30;81.38;;;45.00;;
72413;SDS011;60995;52.154;4.498;2023-06-22T04:10:46;80.63;;;45.25;;
72413;SDS011;60995;52.154;4.498;2023-06-22T04:13:02;78.95;;;43.67;;
72413;SDS011;60995;52.154;4.498;2023-06-22T04:15:19;77.05;;;42.47;;
72413;SDS011;60995;52.154;4.498;2023-06-22T04:17:35;77.00;;;43.22;;
72413;SDS011;60995;52.154;4.498;2023-06-22T04:19:51;72.95;;;41.47;;
72413;SDS011;60995;52.154;4.498;2023-06-22T04:22:07;71.15;;;39.03;;
72413;SDS011;60995;52.154;4.498;2023-06-22T04:24:24;73.55;;;42.08;;
72413;SDS011;60995;52.154;4.498;2023-06-22T04:26:40;73.70;;;41.42;;
72413;SDS011;60995;52.154;4.498;2023-06-22T04:29:01;72.75;;;40.35;;
72413;SDS011;60995;52.154;4.498;2023-06-22T04:31:21;67.60;;;39.35;;
72413;SDS011;60995;52.154;4.498;2023-06-22T04:33:37;66.60;;;40.10;;
72413;SDS011;60995;52.154;4.498;2023-06-22T04:35:56;65.82;;;39.00;;
72413;SDS011;60995;52.154;4.498;2023-06-22T04:38:13;69.35;;;39.72;;
72413;SDS011;60995;52.154;4.498;2023-06-22T04:40:29;69.05;;;39.10;;
72413;SDS011;60995;52.154;4.498;2023-06-22T04:42:45;62.83;;;37.50;;
72413;SDS011;60995;52.154;4.498;2023-06-22T04:45:08;63.55;;;37.80;;
72413;SDS011;60995;52.154;4.498;2023-06-22T04:47:26;59.83;;;35.58;;
72413;SDS011;60995;52.154;4.498;2023-06-22T04:49:42;56.03;;;34.70;;
72413;SDS011;60995;52.154;4.498;2023-06-22T04:51:59;60.95;;;37.05;;
72413;SDS011;60995;52.154;4.498;2023-06-22T04:54:17;51.55;;;34.17;;
72413;SDS011;60995;52.154;4.498;2023-06-22T04:56:33;53.97;;;34.42;;
72413;SDS011;60995;52.154;4.498;2023-06-22T04:58:50;53.83;;;33.45;;
72413;SDS011;60995;52.154;4.498;2023-06-22T05:01:07;51.75;;;31.80;;
72413;SDS011;60995;52.154;4.498;2023-06-22T05:03:25;48.95;;;30.63;;
72413;SDS011;60995;52.154;4.498;2023-06-22T05:05:42;49.92;;;32.75;;
72413;SDS011;60995;52.154;4.498;2023-06-22T05:08:00;43.80;;;28.08;;
72413;SDS011;60995;52.154;4.498;2023-06-22T05:10:17;40.13;;;27.65;;
72413;SDS011;60995;52.154;4.498;2023-06-22T05:12:33;40.60;;;27.30;;
72413;SDS011;60995;52.154;4.498;2023-06-22T05:14:50;41.35;;;27.33;;
72413;SDS011;60995;52.154;4.498;2023-06-22T05:17:06;36.22;;;25.10;;
72413;SDS011;60995;52.154;4.498;2023-06-22T05:19:29;40.38;;;26.33;;
72413;SDS011;60995;52.154;4.498;2023-06-22T05:21:49;36.15;;;24.63;;
72413;SDS011;60995;52.154;4.498;2023-06-22T05:24:05;29.65;;;20.63;;
72413;SDS011;60995;52.154;4.498;2023-06-22T05:26:21;33.38;;;23.42;;
72413;SDS011;60995;52.154;4.498;2023-06-22T05:28:38;34.20;;;23.73;;
72413;SDS011;60995;52.154;4.498;2023-06-22T05:30:54;32.45;;;21.80;;
72413;SDS011;60995;52.154;4.498;2023-06-22T05:33:10;32.85;;;22.80;;
72413;SDS011;60995;52.154;4.498;2023-06-22T05:35:27;34.85;;;23.88;;
72413;SDS011;60995;52.154;4.498;2023-06-22T05:37:43;33.45;;;22.40;;
72413;SDS011;60995;52.154;4.498;2023-06-22T05:39:59;36.28;;;22.73;;
72413;SDS011;60995;52.154;4.498;2023-06-22T05:42:15;32.10;;;22.63;;
72413;SDS011;60995;52.154;4.498;2023-06-22T05:44:32;32.92;;;22.60;;
72413;SDS011;60995;52.154;4.498;2023-06-22T05:46:49;33.72;;;23.95;;
72413;SDS011;60995;52.154;4.498;2023-06-22T05:49:05;37.28;;;23.50;;
72413;SDS011;60995;52.154;4.498;2023-06-22T05:51:21;36.67;;;24.38;;
72413;SDS011;60995;52.154;4.498;2023-06-22T05:53:38;34.92;;;22.23;;
72413;SDS011;60995;52.154;4.498;2023-06-22T05:55:54;32.33;;;22.25;;
72413;SDS011;60995;52.154;4.498;2023-06-22T05:58:10;33.35;;;23.95;;
72413;SDS011;60995;52.154;4.498;2023-06-22T06:00:26;32.25;;;22.92;;
72413;SDS011;60995;52.154;4.498;2023-06-22T06:02:43;34.50;;;24.27;;
72413;SDS011;60995;52.154;4.498;2023-06-22T06:04:59;29.50;;;21.92;;
72413;SDS011;60995;52.154;4.498;2023-06-22T06:07:15;33.08;;;23.52;;
72413;SDS011;60995;52.154;4.498;2023-06-22T06:09:31;32.40;;;23.05;;
72413;SDS011;60995;52.154;4.498;2023-06-22T06:11:48;33.80;;;23.80;;
72413;SDS011;60995;52.154;4.498;2023-06-22T06:14:04;31.83;;;23.50;;
72413;SDS011;60995;52.154;4.498;2023-06-22T06:16:21;30.95;;;22.15;;
72413;SDS011;60995;52.154;4.498;2023-06-22T06:18:38;26.25;;;20.95;;
72413;SDS011;60995;52.154;4.498;2023-06-22T06:20:54;28.42;;;19.85;;
72413;SDS011;60995;52.154;4.498;2023-06-22T06:23:11;28.52;;;19.75;;
72413;SDS011;60995;52.154;4.498;2023-06-22T06:25:27;28.17;;;20.58;;
72413;SDS011;60995;52.154;4.498;2023-06-22T06:27:43;31.90;;;21.70;;
72413;SDS011;60995;52.154;4.498;2023-06-22T06:30:04;30.05;;;20.42;;
72413;SDS011;60995;52.154;4.498;2023-06-22T06:32:21;28.65;;;18.80;;
72413;SDS011;60995;52.154;4.498;2023-06-22T06:34:37;22.98;;;17.23;;
72413;SDS011;60995;52.154;4.498;2023-06-22T06:36:54;22.17;;;15.77;;
72413;SDS011;60995;52.154;4.498;2023-06-22T06:39:10;22.02;;;16.23;;
72413;SDS011;60995;52.154;4.498;2023-06-22T06:41:26;19.35;;;14.07;;
72413;SDS011;60995;52.154;4.498;2023-06-22T06:43:42;20.73;;;14.60;;
72413;SDS011;60995;52.154;4.498;2023-06-22T06:45:59;22.48;;;15.65;;
72413;SDS011;60995;52.154;4.498;2023-06-22T06:48:15;19.67;;;13.15;;
72413;SDS011;60995;52.154;4.498;2023-06-22T06:50:31;19.80;;;14.23;;
72413;SDS011;60995;52.154;4.498;2023-06-22T06:52:47;15.52;;;11.02;;
72413;SDS011;60995;52.154;4.498;2023-06-22T06:55:06;15.48;;;11.50;;
72413;SDS011;60995;52.154;4.498;2023-06-22T06:57:27;17.30;;;11.52;;
72413;SDS011;60995;52.154;4.498;2023-06-22T06:59:46;14.55;;;9.50;;
72413;SDS011;60995;52.154;4.498;2023-06-22T07:02:02;12.50;;;7.85;;
72413;SDS011;60995;52.154;4.498;2023-06-22T07:04:19;14.35;;;8.60;;
72413;SDS011;60995;52.154;4.498;2023-06-22T07:06:35;13.82;;;8.35;;
72413;SDS011;60995;52.154;4.498;2023-06-22T07:08:51;14.85;;;8.80;;
72413;SDS011;60995;52.154;4.498;2023-06-22T07:11:07;12.50;;;8.88;;
72413;SDS011;60995;52.154;4.498;2023-06-22T07:13:24;12.70;;;8.40;;
72413;SDS011;60995;52.154;4.498;2023-06-22T07:15:40;11.93;;;8.18;;
72413;SDS011;60995;52.154;4.498;2023-06-22T07:17:56;11.98;;;7.70;;
72413;SDS011;60995;52.154;4.498;2023-06-22T07:20:13;10.55;;;7.13;;
72413;SDS011;60995;52.154;4.498;2023-06-22T07:22:29;11.75;;;7.13;;
72413;SDS011;60995;52.154;4.498;2023-06-22T07:24:46;11.15;;;7.53;;
72413;SDS011;60995;52.154;4.498;2023-06-22T07:27:02;10.88;;;6.55;;
72413;SDS011;60995;52.154;4.498;2023-06-22T07:29:21;11.27;;;6.78;;
72413;SDS011;60995;52.154;4.498;2023-06-22T07:31:37;10.40;;;6.60;;
72413;SDS011;60995;52.154;4.498;2023-06-22T07:33:55;13.38;;;8.65;;
72413;SDS011;60995;52.154;4.498;2023-06-22T07:36:12;11.80;;;7.80;;
72413;SDS011;60995;52.154;4.498;2023-06-22T07:38:28;13.35;;;8.43;;
72413;SDS011;60995;52.154;4.498;2023-06-22T07:40:45;13.35;;;8.32;;
72413;SDS011;60995;52.154;4.498;2023-06-22T07:43:01;12.07;;;8.38;;
72413;SDS011;60995;52.154;4.498;2023-06-22T07:45:19;11.40;;;7.65;;
72413;SDS011;60995;52.154;4.498;2023-06-22T07:47:35;9.55;;;6.45;;
72413;SDS011;60995;52.154;4.498;2023-06-22T07:49:52;10.60;;;6.32;;
72413;SDS011;60995;52.154;4.498;2023-06-22T07:52:10;10.23;;;5.85;;
72413;SDS011;60995;52.154;4.498;2023-06-22T07:54:27;8.57;;;5.35;;
72413;SDS011;60995;52.154;4.498;2023-06-22T07:56:43;9.18;;;5.45;;
72413;SDS011;60995;52.154;4.498;2023-06-22T07:58:59;9.18;;;5.38;;
72413;SDS011;60995;52.154;4.498;2023-06-22T08:01:17;9.65;;;5.32;;
72413;SDS011;60995;52.154;4.498;2023-06-22T08:03:36;9.65;;;5.20;;
72413;SDS011;60995;52.154;4.498;2023-06-22T08:05:52;9.07;;;6.03;;
72413;SDS011;60995;52.154;4.498;2023-06-22T08:08:09;11.23;;;6.22;;
72413;SDS011;60995;52.154;4.498;2023-06-22T08:10:25;10.95;;;5.80;;
72413;SDS011;60995;52.154;4.498;2023-06-22T08:12:42;10.85;;;5.63;;
72413;SDS011;60995;52.154;4.498;2023-06-22T08:14:58;9.35;;;5.28;;
72413;SDS011;60995;52.154;4.498;2023-06-22T08:17:15;10.13;;;5.22;;
72413;SDS011;60995;52.154;4.498;2023-06-22T08:19:31;8.95;;;5.85;;
72413;SDS011;60995;52.154;4.498;2023-06-22T08:21:48;9.85;;;6.38;;
72413;SDS011;60995;52.154;4.498;2023-06-22T08:24:04;10.40;;;5.45;;
72413;SDS011;60995;52.154;4.498;2023-06-22T08:26:21;9.00;;;5.05;;
72413;SDS011;60995;52.154;4.498;2023-06-22T08:28:37;9.15;;;4.85;;
72413;SDS011;60995;52.154;4.498;2023-06-22T08:30:54;10.75;;;5.22;;
72413;SDS011;60995;52.154;4.498;2023-06-22T08:33:11;10.25;;;5.18;;
72413;SDS011;60995;52.154;4.498;2023-06-22T08:35:28;9.45;;;5.20;;
72413;SDS011;60995;52.154;4.498;2023-06-22T08:37:45;9.63;;;5.53;;
72413;SDS011;60995;52.154;4.498;2023-06-22T08:40:08;10.18;;;5.07;;
72413;SDS011;60995;52.154;4.498;2023-06-22T08:42:26;10.00;;;5.40;;
72413;SDS011;60995;52.154;4.498;2023-06-22T08:44:42;8.65;;;5.30;;
72413;SDS011;60995;52.154;4.498;2023-06-22T08:46:59;10.70;;;5.47;;
72413;SDS011;60995;52.154;4.498;2023-06-22T08:49:15;10.82;;;5.50;;
72413;SDS011;60995;52.154;4.498;2023-06-22T08:51:31;9.35;;;5.28;;
72413;SDS011;60995;52.154;4.498;2023-06-22T08:53:48;8.38;;;5.68;;
72413;SDS011;60995;52.154;4.498;2023-06-22T08:56:04;12.43;;;7.68;;
72413;SDS011;60995;52.154;4.498;2023-06-22T08:58:20;10.43;;;6.00;;
72413;SDS011;60995;52.154;4.498;2023-06-22T09:00:37;11.45;;;7.13;;
72413;SDS011;60995;52.154;4.498;2023-06-22T09:02:53;11.70;;;6.20;;
72413;SDS011;60995;52.154;4.498;2023-06-22T09:05:12;12.30;;;7.15;;
72413;SDS011;60995;52.154;4.498;2023-06-22T09:07:29;11.95;;;6.90;;
72413;SDS011;60995;52.154;4.498;2023-06-22T09:09:46;11.82;;;6.10;;
72413;SDS011;60995;52.154;4.498;2023-06-22T09:12:02;12.90;;;8.07;;
72413;SDS011;60995;52.154;4.498;2023-06-22T09:14:18;13.52;;;8.60;;
72413;SDS011;60995;52.154;4.498;2023-06-22T09:16:35;13.82;;;7.35;;
72413;SDS011;60995;52.154;4.498;2023-06-22T09:18:51;11.35;;;7.60;;
72413;SDS011;60995;52.154;4.498;2023-06-22T09:21:08;15.20;;;10.13;;
72413;SDS011;60995;52.154;4.498;2023-06-22T09:23:24;14.88;;;8.98;;
72413;SDS011;60995;52.154;4.498;2023-06-22T09:25:40;16.42;;;10.85;;
72413;SDS011;60995;52.154;4.498;2023-06-22T09:27:56;14.82;;;10.23;;
72413;SDS011;60995;52.154;4.498;2023-06-22T09:30:13;17.10;;;11.05;;
72413;SDS011;60995;52.154;4.498;2023-06-22T09:32:29;17.38;;;11.05;;
72413;SDS011;60995;52.154;4.498;2023-06-22T09:34:45;16.98;;;9.52;;
72413;SDS011;60995;52.154;4.498;2023-06-22T09:37:02;16.20;;;10.07;;
72413;SDS011;60995;52.154;4.498;2023-06-22T09:39:19;15.27;;;9.40;;
72413;SDS011;60995;52.154;4.498;2023-06-22T09:41:35;14.70;;;9.02;;
72413;SDS011;60995;52.154;4.498;2023-06-22T09:43:51;15.02;;;7.60;;
72413;SDS011;60995;52.154;4.498;2023-06-22T09:46:07;15.13;;;8.07;;
72413;SDS011;60995;52.154;4.498;2023-06-22T09:48:25;13.43;;;8.63;;
72413;SDS011;60995;52.154;4.498;2023-06-22T09:50:41;14.05;;;8.35;;
72413;SDS011;60995;52.154;4.498;2023-06-22T09:52:57;12.25;;;8.55;;
72413;SDS011;60995;52.154;4.498;2023-06-22T09:55:14;14.52;;;9.48;;
72413;SDS011;60995;52.154;4.498;2023-06-22T09:57:31;15.23;;;9.18;;
72413;SDS011;60995;52.154;4.498;2023-06-22T09:59:48;12.60;;;7.82;;
72413;SDS011;60995;52.154;4.498;2023-06-22T10:02:04;13.63;;;9.20;;
72413;SDS011;60995;52.154;4.498;2023-06-22T10:04:22;13.93;;;8.38;;
72413;SDS011;60995;52.154;4.498;2023-06-22T10:06:40;13.57;;;9.20;;
72413;SDS011;60995;52.154;4.498;2023-06-22T10:08:56;15.13;;;8.85;;
72413;SDS011;60995;52.154;4.498;2023-06-22T10:11:12;14.10;;;9.90;;
72413;SDS011;60995;52.154;4.498;2023-06-22T10:13:29;13.90;;;9.65;;
72413;SDS011;60995;52.154;4.498;2023-06-22T10:15:45;16.42;;;9.95;;
72413;SDS011;60995;52.154;4.498;2023-06-22T10:18:07;14.32;;;9.15;;
72413;SDS011;60995;52.154;4.498;2023-06-22T10:20:23;12.32;;;7.40;;
72413;SDS011;60995;52.154;4.498;2023-06-22T10:22:41;13.13;;;7.97;;
72413;SDS011;60995;52.154;4.498;2023-06-22T10:24:59;12.07;;;8.18;;
72413;SDS011;60995;52.154;4.498;2023-06-22T10:27:16;14.48;;;8.75;;
72413;SDS011;60995;52.154;4.498;2023-06-22T10:29:32;11.90;;;7.75;;
72413;SDS011;60995;52.154;4.498;2023-06-22T10:31:48;13.68;;;8.48;;
72413;SDS011;60995;52.154;4.498;2023-06-22T10:34:04;13.50;;;7.78;;
72413;SDS011;60995;52.154;4.498;2023-06-22T10:36:21;13.05;;;7.88;;
72413;SDS011;60995;52.154;4.498;2023-06-22T10:38:38;11.70;;;7.82;;
72413;SDS011;60995;52.154;4.498;2023-06-22T10:40:54;15.27;;;9.27;;
72413;SDS011;60995;52.154;4.498;2023-06-22T10:43:11;15.48;;;9.30;;
72413;SDS011;60995;52.154;4.498;2023-06-22T10:45:27;14.23;;;8.98;;
72413;SDS011;60995;52.154;4.498;2023-06-22T10:47:43;13.20;;;9.68;;
72413;SDS011;60995;52.154;4.498;2023-06-22T10:49:59;15.15;;;10.90;;
72413;SDS011;60995;52.154;4.498;2023-06-22T10:52:17;16.92;;;10.50;;
72413;SDS011;60995;52.154;4.498;2023-06-22T10:54:34;14.45;;;10.10;;
72413;SDS011;60995;52.154;4.498;2023-06-22T10:56:52;16.23;;;9.63;;
72413;SDS011;60995;52.154;4.498;2023-06-22T10:59:08;14.38;;;8.85;;
72413;SDS011;60995;52.154;4.498;2023-06-22T11:01:24;14.45;;;8.20;;
72413;SDS011;60995;52.154;4.498;2023-06-22T11:03:41;14.50;;;8.50;;
72413;SDS011;60995;52.154;4.498;2023-06-22T11:05:57;16.95;;;9.48;;
72413;SDS011;60995;52.154;4.498;2023-06-22T11:08:13;16.38;;;10.32;;
72413;SDS011;60995;52.154;4.498;2023-06-22T11:10:30;16.73;;;10.80;;
72413;SDS011;60995;52.154;4.498;2023-06-22T11:12:46;14.07;;;9.02;;
72413;SDS011;60995;52.154;4.498;2023-06-22T11:15:02;15.20;;;9.73;;
72413;SDS011;60995;52.154;4.498;2023-06-22T11:17:20;17.02;;;10.88;;
72413;SDS011;60995;52.154;4.498;2023-06-22T11:19:36;17.38;;;12.05;;
72413;SDS011;60995;52.154;4.498;2023-06-22T11:21:52;17.58;;;12.10;;
72413;SDS011;60995;52.154;4.498;2023-06-22T11:24:09;17.88;;;11.40;;
72413;SDS011;60995;52.154;4.498;2023-06-22T11:26:25;15.90;;;10.35;;
72413;SDS011;60995;52.154;4.498;2023-06-22T11:28:44;16.42;;;11.10;;
72413;SDS011;60995;52.154;4.498;2023-06-22T11:31:02;20.83;;;11.70;;
72413;SDS011;60995;52.154;4.498;2023-06-22T11:33:19;16.42;;;11.38;;
72413;SDS011;60995;52.154;4.498;2023-06-22T11:35:35;18.88;;;11.45;;
72413;SDS011;60995;52.154;4.498;2023-06-22T11:37:51;18.25;;;10.30;;
72413;SDS011;60995;52.154;4.498;2023-06-22T11:40:08;17.40;;;11.00;;
72413;SDS011;60995;52.154;4.498;2023-06-22T11:42:25;18.75;;;11.13;;
72413;SDS011;60995;52.154;4.498;2023-06-22T11:44:41;16.52;;;11.27;;
72413;SDS011;60995;52.154;4.498;2023-06-22T11:46:59;20.05;;;12.95;;
72413;SDS011;60995;52.154;4.498;2023-06-22T11:49:16;20.45;;;12.18;;
72413;SDS011;60995;52.154;4.498;2023-06-22T11:51:32;18.95;;;12.40;;
72413;SDS011;60995;52.154;4.498;2023-06-22T11:53:49;19.77;;;13.00;;
72413;SDS011;60995;52.154;4.498;2023-06-22T11:56:05;19.33;;;12.75;;
72413;SDS011;60995;52.154;4.498;2023-06-22T11:58:22;19.30;;;12.63;;
72413;SDS011;60995;52.154;4.498;2023-06-22T12:00:38;21.30;;;12.20;;
72413;SDS011;60995;52.154;4.498;2023-06-22T12:02:55;20.02;;;13.55;;
72413;SDS011;60995;52.154;4.498;2023-06-22T12:05:11;17.75;;;12.70;;
72413;SDS011;60995;52.154;4.498;2023-06-22T12:07:28;21.13;;;15.10;;
72413;SDS011;60995;52.154;4.498;2023-06-22T12:09:44;20.23;;;12.93;;
72413;SDS011;60995;52.154;4.498;2023-06-22T12:12:01;21.67;;;13.98;;
72413;SDS011;60995;52.154;4.498;2023-06-22T12:14:18;21.98;;;12.88;;
72413;SDS011;60995;52.154;4.498;2023-06-22T12:16:34;20.30;;;13.60;;
72413;SDS011;60995;52.154;4.498;2023-06-22T12:18:50;20.55;;;12.75;;
72413;SDS011;60995;52.154;4.498;2023-06-22T12:21:08;22.92;;;14.68;;
72413;SDS011;60995;52.154;4.498;2023-06-22T12:23:24;19.88;;;14.30;;
72413;SDS011;60995;52.154;4.498;2023-06-22T12:25:40;24.67;;;15.95;;
72413;SDS011;60995;52.154;4.498;2023-06-22T12:27:57;20.95;;;14.38;;
72413;SDS011;60995;52.154;4.498;2023-06-22T12:30:13;20.23;;;15.85;;
72413;SDS011;60995;52.154;4.498;2023-06-22T12:32:31;23.23;;;14.85;;
72413;SDS011;60995;52.154;4.498;2023-06-22T12:34:47;19.23;;;15.07;;
72413;SDS011;60995;52.154;4.498;2023-06-22T12:37:04;20.73;;;15.23;;
72413;SDS011;60995;52.154;4.498;2023-06-22T12:39:21;21.88;;;15.90;;
72413;SDS011;60995;52.154;4.498;2023-06-22T12:41:37;26.10;;;16.67;;
72413;SDS011;60995;52.154;4.498;2023-06-22T12:43:54;23.73;;;16.48;;
72413;SDS011;60995;52.154;4.498;2023-06-22T12:46:10;21.13;;;16.00;;
72413;SDS011;60995;52.154;4.498;2023-06-22T12:48:27;22.17;;;16.05;;
72413;SDS011;60995;52.154;4.498;2023-06-22T12:50:43;23.33;;;17.35;;
72413;SDS011;60995;52.154;4.498;2023-06-22T12:52:59;23.50;;;16.27;;
72413;SDS011;60995;52.154;4.498;2023-06-22T12:55:18;25.10;;;17.23;;
72413;SDS011;60995;52.154;4.498;2023-06-22T12:57:34;24.50;;;16.02;;
72413;SDS011;60995;52.154;4.498;2023-06-22T12:59:50;23.65;;;15.93;;
72413;SDS011;60995;52.154;4.498;2023-06-22T13:02:07;21.17;;;14.75;;
72413;SDS011;60995;52.154;4.498;2023-06-22T13:04:23;21.73;;;15.35;;
72413;SDS011;60995;52.154;4.498;2023-06-22T13:06:40;21.88;;;14.63;;
72413;SDS011;60995;52.154;4.498;2023-06-22T13:09:03;20.02;;;14.50;;
72413;SDS011;60995;52.154;4.498;2023-06-22T13:11:20;23.33;;;15.20;;
72413;SDS011;60995;52.154;4.498;2023-06-22T13:13:38;22.17;;;15.68;;
72413;SDS011;60995;52.154;4.498;2023-06-22T13:15:55;22.48;;;15.48;;
72413;SDS011;60995;52.154;4.498;2023-06-22T13:18:12;21.90;;;15.82;;
72413;SDS011;60995;52.154;4.498;2023-06-22T13:20:28;20.70;;;15.10;;
72413;SDS011;60995;52.154;4.498;2023-06-22T13:22:45;21.38;;;14.90;;
72413;SDS011;60995;52.154;4.498;2023-06-22T13:25:01;20.73;;;16.17;;
72413;SDS011;60995;52.154;4.498;2023-06-22T13:27:17;21.30;;;16.23;;
72413;SDS011;60995;52.154;4.498;2023-06-22T13:29:34;25.02;;;17.40;;
72413;SDS011;60995;52.154;4.498;2023-06-22T13:31:50;23.52;;;15.77;;
72413;SDS011;60995;52.154;4.498;2023-06-22T13:34:06;18.98;;;15.20;;